Time;durP1;ratioP1;P1;durP2;ratioP2;P2;SDS_P1;SDS_P2;PMS_P1;PMS_P2;Temp;Humidity;BMP_temperature;BMP_pressure;BME280_temperature;BME280_humidity;BME280_pressure;Samples;Min_cycle;Max_cycle;Signal;HPM_P1;HPM_P2
2023/05/20 00:01:51;;;;;;;11.80;5.00;;;18.90;99.90;;;;;;5078829;28;20036;-77
2023/05/20 00:04:55;;;;;;;12.65;4.70;;;18.90;99.90;;;;;;5091331;28;20043;-77
2023/05/20 00:07:59;;;;;;;10.57;5.05;;;18.90;99.90;;;;;;5090758;28;20055;-77
2023/05/20 00:11:03;;;;;;;12.02;4.82;;;18.90;99.90;;;;;;5091226;28;20047;-77
2023/05/20 00:14:07;;;;;;;12.10;5.32;;;18.90;99.90;;;;;;5091115;28;20150;-77
2023/05/20 00:17:11;;;;;;;16.67;4.57;;;18.90;99.90;;;;;;5091188;28;20047;-78
2023/05/20 00:20:15;;;;;;;14.30;5.10;;;18.80;99.90;;;;;;5091017;28;20035;-77
2023/05/20 00:23:19;;;;;;;11.25;5.53;;;18.70;99.90;;;;;;5091146;28;20047;-77
2023/05/20 00:26:22;;;;;;;13.15;4.72;;;18.80;99.90;;;;;;5078616;28;20039;-77
2023/05/20 00:29:32;;;;;;;10.40;4.38;;;18.70;99.90;;;;;;5080660;28;20078;-77
2023/05/20 00:32:36;;;;;;;14.20;4.97;;;18.60;99.90;;;;;;5094926;28;20043;-76
2023/05/20 00:35:40;;;;;;;12.07;4.88;;;18.60;99.90;;;;;;5095068;28;20047;-77
2023/05/20 00:38:45;;;;;;;11.45;5.50;;;18.60;99.90;;;;;;5082570;28;20047;-77
2023/05/20 00:41:49;;;;;;;13.48;5.18;;;18.60;99.90;;;;;;5095336;28;20066;-77
2023/05/20 00:44:54;;;;;;;13.88;5.07;;;18.60;99.90;;;;;;5095625;28;20043;-76
2023/05/20 00:48:01;;;;;;;13.65;5.53;;;18.40;99.90;;;;;;5094903;28;20071;-76
2023/05/20 00:51:06;;;;;;;14.05;5.15;;;18.30;99.90;;;;;;5094618;28;20040;-77
2023/05/20 00:54:11;;;;;;;9.60;4.03;;;18.00;99.90;;;;;;5094948;28;20050;-75
2023/05/20 00:57:16;;;;;;;15.20;4.03;;;17.70;99.90;;;;;;5094724;28;20040;-75
2023/05/20 01:00:20;;;;;;;8.20;3.67;;;17.50;99.90;;;;;;5081978;28;20050;-76
2023/05/20 01:03:24;;;;;;;15.75;3.75;;;17.50;99.90;;;;;;5093704;28;20384;-76
2023/05/20 01:06:28;;;;;;;8.05;3.17;;;17.40;99.90;;;;;;5094094;28;20048;-75
2023/05/20 01:09:32;;;;;;;8.60;3.47;;;14.80;99.90;;;;;;5094004;28;20535;-77
2023/05/20 01:12:52;;;;;;;9.23;3.00;;;17.20;99.90;;;;;;5094703;28;20392;-74
2023/05/20 01:15:57;;;;;;;12.13;3.90;;;17.30;99.90;;;;;;5094123;28;20043;-75
2023/05/20 01:19:05;;;;;;;9.77;4.35;;;17.40;99.90;;;;;;5081249;28;20051;-75
2023/05/20 01:22:13;;;;;;;12.50;4.93;;;17.30;99.90;;;;;;5081129;28;20064;-74
2023/05/20 01:25:17;;;;;;;16.17;5.88;;;17.50;99.90;;;;;;5081620;28;20531;-76
2023/05/20 01:28:23;;;;;;;11.77;4.82;;;17.50;99.90;;;;;;5093760;28;20047;-75
2023/05/20 01:31:32;;;;;;;11.10;5.03;;;17.50;99.90;;;;;;5094094;28;20051;-76
2023/05/20 01:34:37;;;;;;;15.15;5.55;;;17.60;99.90;;;;;;5093772;28;20047;-76
2023/05/20 01:37:43;;;;;;;14.73;5.07;;;17.60;99.90;;;;;;5093762;28;20047;-76
2023/05/20 01:40:47;;;;;;;11.77;4.65;;;;;;;;;;5080392;28;20039;-76
2023/05/20 01:43:52;;;;;;;9.00;4.47;;;17.70;99.90;;;;;;5081331;28;20048;-77
2023/05/20 01:46:58;;;;;;;9.98;5.10;;;17.80;99.90;;;;;;5093581;28;20032;-77
2023/05/20 01:50:02;;;;;;;8.55;4.18;;;17.90;99.90;;;;;;5080634;28;20048;-75
2023/05/20 01:53:09;;;;;;;10.38;5.15;;;17.90;99.90;;;;;;5093396;28;20032;-76
2023/05/20 01:56:13;;;;;;;15.10;4.70;;;17.90;99.90;;;;;;5080816;28;20062;-76
2023/05/20 01:59:17;;;;;;;7.03;4.25;;;17.90;99.90;;;;;;5069498;28;20043;-76
2023/05/20 02:02:21;;;;;;;9.95;4.50;;;17.90;99.90;;;;;;5080513;28;20035;-75
2023/05/20 02:05:25;;;;;;;10.40;4.20;;;17.90;99.90;;;;;;5092386;28;20055;-75
2023/05/20 02:08:29;;;;;;;10.85;4.80;;;18.00;99.90;;;;;;5080233;28;20059;-76
2023/05/20 02:11:32;;;;;;;8.30;4.43;;;18.00;99.90;;;;;;5093231;28;20043;-76
2023/05/20 02:14:37;;;;;;;9.70;4.25;;;18.10;99.90;;;;;;5080492;28;20036;-75
2023/05/20 02:17:42;;;;;;;11.73;4.88;;;18.20;99.90;;;;;;5093409;28;20403;-75
2023/05/20 02:20:46;;;;;;;10.98;4.63;;;18.20;99.90;;;;;;5080138;28;20039;-75
2023/05/20 02:23:50;;;;;;;7.63;4.13;;;18.20;99.90;;;;;;5092956;28;20051;-75
2023/05/20 02:26:56;;;;;;;12.57;4.72;;;18.20;99.90;;;;;;5092670;28;20032;-75
2023/05/20 02:30:00;;;;;;;15.70;4.55;;;18.20;99.90;;;;;;5092394;28;20058;-75
2023/05/20 02:33:04;;;;;;;10.27;4.50;;;18.20;99.90;;;;;;5080282;28;20043;-75
2023/05/20 02:36:07;;;;;;;10.75;4.55;;;18.10;99.90;;;;;;5092858;28;20047;-75
2023/05/20 02:39:11;;;;;;;16.67;4.53;;;18.10;99.90;;;;;;5080060;28;20039;-75
2023/05/20 02:42:15;;;;;;;11.35;4.22;;;18.10;99.90;;;;;;5092610;28;20047;-77
2023/05/20 02:45:19;;;;;;;10.40;4.47;;;18.00;99.90;;;;;;5092671;28;20062;-75
2023/05/20 02:48:23;;;;;;;8.63;4.53;;;18.10;99.90;;;;;;5079413;28;20051;-75
2023/05/20 02:51:27;;;;;;;9.70;4.82;;;18.00;99.90;;;;;;5078811;28;20047;-75
2023/05/20 02:54:31;;;;;;;14.90;4.82;;;18.00;99.90;;;;;;5092481;28;20028;-76
2023/05/20 02:57:37;;;;;;;12.38;5.00;;;18.00;99.90;;;;;;5079471;28;20043;-75
2023/05/20 03:00:42;;;;;;;11.15;4.82;;;17.90;99.90;;;;;;5079666;28;20051;-74
2023/05/20 03:03:46;;;;;;;9.75;4.13;;;17.90;99.90;;;;;;5092111;28;20055;-77
2023/05/20 03:06:50;;;;;;;9.77;4.35;;;18.00;99.90;;;;;;5079183;28;20612;-76
2023/05/20 03:09:55;;;;;;;9.68;4.75;;;18.00;99.90;;;;;;5067837;28;20044;-75
2023/05/20 03:12:59;;;;;;;9.93;4.82;;;18.00;99.90;;;;;;5079396;28;20032;-75
2023/05/20 03:16:03;;;;;;;12.05;4.50;;;18.00;99.90;;;;;;5079284;28;20047;-75
2023/05/20 03:19:07;;;;;;;9.50;4.28;;;18.00;99.90;;;;;;5079189;28;20039;-76
2023/05/20 03:22:13;;;;;;;20.73;4.72;;;18.00;99.90;;;;;;5079135;28;20498;-76
2023/05/20 03:25:17;;;;;;;12.07;4.45;;;18.10;99.90;;;;;;5091108;28;20047;-77
2023/05/20 03:28:22;;;;;;;8.13;3.80;;;18.50;99.90;;;;;;5079115;28;20046;-77
2023/05/20 03:31:27;;;;;;;9.13;4.10;;;18.30;99.90;;;;;;5078896;28;20035;-77
2023/05/20 03:34:30;;;;;;;10.35;4.35;;;18.30;99.90;;;;;;5079242;28;20043;-76
2023/05/20 03:37:35;;;;;;;8.43;3.90;;;18.30;99.90;;;;;;5078664;28;20039;-75
2023/05/20 03:40:40;;;;;;;6.72;3.92;;;18.20;99.90;;;;;;5078973;28;20587;-76
2023/05/20 03:43:44;;;;;;;11.60;3.92;;;18.30;99.90;;;;;;5079110;28;20032;-76
2023/05/20 03:46:48;;;;;;;12.38;3.92;;;18.30;99.90;;;;;;5078871;28;20039;-77
2023/05/20 03:49:53;;;;;;;10.13;3.88;;;18.40;99.90;;;;;;5078637;28;20047;-76
2023/05/20 03:52:58;;;;;;;15.30;4.43;;;18.40;99.90;;;;;;5067370;28;20043;-76
2023/05/20 03:56:02;;;;;;;14.90;4.68;;;18.50;99.90;;;;;;5078534;28;20067;-75
2023/05/20 03:59:07;;;;;;;12.75;3.95;;;18.50;99.90;;;;;;5067421;28;20047;-79
2023/05/20 04:02:11;;;;;;;12.40;3.20;;;18.50;99.90;;;;;;5078633;28;20411;-79
2023/05/20 04:05:15;;;;;;;13.13;3.83;;;18.40;99.90;;;;;;5078381;28;20043;-76
2023/05/20 04:08:20;;;;;;;8.45;4.25;;;18.40;99.90;;;;;;5078174;28;20055;-76
2023/05/20 04:11:24;;;;;;;10.80;3.67;;;18.50;99.90;;;;;;5078694;28;20053;-79
2023/05/20 04:14:28;;;;;;;10.60;3.75;;;18.50;99.90;;;;;;5091183;28;20070;-77
2023/05/20 04:17:32;;;;;;;6.78;3.42;;;18.40;99.90;;;;;;5078387;28;20059;-78
2023/05/20 04:20:37;;;;;;;14.02;3.50;;;18.40;99.90;;;;;;5078423;28;20408;-75
2023/05/20 04:23:41;;;;;;;11.07;3.40;;;18.00;99.90;;;;;;5090857;28;20538;-76
2023/05/20 04:26:45;;;;;;;12.60;3.95;;;18.40;99.90;;;;;;5078585;28;20051;-78
2023/05/20 04:29:49;;;;;;;16.13;3.78;;;18.40;99.90;;;;;;5090698;28;20066;-75
2023/05/20 04:32:54;;;;;;;9.15;3.67;;;18.40;99.90;;;;;;5078352;28;20051;-76
2023/05/20 04:36:00;;;;;;;10.55;4.65;;;18.30;99.90;;;;;;5078418;28;20098;-77
2023/05/20 04:39:04;;;;;;;9.55;3.78;;;18.40;99.90;;;;;;5078160;28;20047;-78
2023/05/20 04:42:07;;;;;;;15.38;4.53;;;18.40;99.90;;;;;;5090759;28;20418;-77
2023/05/20 04:45:12;;;;;;;12.93;4.47;;;18.40;99.90;;;;;;5078247;28;20039;-78
2023/05/20 04:48:18;;;;;;;16.17;4.97;;;18.50;99.90;;;;;;5077954;28;20043;-77
2023/05/20 04:51:22;;;;;;;11.70;4.22;;;18.50;99.90;;;;;;5078528;28;20051;-77
2023/05/20 04:54:25;;;;;;;12.65;4.25;;;18.40;99.90;;;;;;5090552;28;20043;-79
2023/05/20 04:57:30;;;;;;;11.60;4.63;;;18.40;99.90;;;;;;5078004;28;20043;-77
2023/05/20 05:00:34;;;;;;;14.32;4.22;;;18.40;99.90;;;;;;5078294;28;20040;-76
2023/05/20 05:03:38;;;;;;;15.07;4.25;;;18.40;99.90;;;;;;5089587;28;20070;-76
2023/05/20 05:06:42;;;;;;;13.50;4.00;;;18.30;99.90;;;;;;5090335;28;20055;-75
2023/05/20 05:09:47;;;;;;;16.02;4.95;;;18.30;99.90;;;;;;5078005;28;20118;-76
2023/05/20 05:12:51;;;;;;;12.27;4.60;;;18.40;99.90;;;;;;5077856;28;20047;-76
2023/05/20 05:15:59;;;;;;;14.20;4.55;;;18.40;99.90;;;;;;5092560;28;20047;-75
2023/05/20 05:19:04;;;;;;;14.43;4.40;;;18.40;99.90;;;;;;5081368;28;20059;-76
2023/05/20 05:22:11;;;;;;;13.27;5.05;;;18.40;99.90;;;;;;5069837;28;20047;-79
2023/05/20 05:25:16;;;;;;;17.75;5.07;;;18.40;99.90;;;;;;5081437;28;20043;-80
2023/05/20 05:28:20;;;;;;;13.00;4.13;;;18.30;99.90;;;;;;5069782;28;20038;-78
2023/05/20 05:31:24;;;;;;;13.05;4.55;;;18.30;99.90;;;;;;5081642;28;20054;-76
2023/05/20 05:34:28;;;;;;;13.48;4.03;;;18.20;99.90;;;;;;5069784;28;20047;-79
2023/05/20 05:37:32;;;;;;;13.15;4.00;;;18.30;99.90;;;;;;5093164;28;20054;-80
2023/05/20 05:40:36;;;;;;;9.93;3.65;;;18.30;99.90;;;;;;5093249;28;20051;-76
2023/05/20 05:43:41;;;;;;;12.57;4.72;;;18.40;99.90;;;;;;5081435;28;20051;-75
2023/05/20 05:46:45;;;;;;;12.50;4.20;;;18.40;99.90;;;;;;5081251;28;20044;-77
2023/05/20 05:49:49;;;;;;;12.75;4.25;;;18.40;99.90;;;;;;5080921;28;20396;-76
2023/05/20 05:52:53;;;;;;;13.45;4.38;;;18.50;99.90;;;;;;5081251;28;20502;-76
2023/05/20 05:55:57;;;;;;;11.63;4.45;;;18.50;99.90;;;;;;5081013;28;20044;-79
2023/05/20 05:59:02;;;;;;;13.85;4.68;;;18.50;99.90;;;;;;5069529;28;20395;-77
2023/05/20 06:02:09;;;;;;;11.00;4.28;;;18.50;99.90;;;;;;5081127;28;20043;-76
2023/05/20 06:05:13;;;;;;;11.35;3.75;;;18.50;99.90;;;;;;5093167;28;20051;-77
2023/05/20 06:08:17;;;;;;;8.05;3.92;;;18.40;99.90;;;;;;5091988;28;20051;-79
2023/05/20 06:11:22;;;;;;;15.20;4.57;;;18.40;99.90;;;;;;5080749;28;20522;-80
2023/05/20 06:14:26;;;;;;;13.15;4.35;;;18.50;99.90;;;;;;5080282;28;20046;-77
2023/05/20 06:17:30;;;;;;;10.25;3.67;;;18.50;99.90;;;;;;5080634;28;20051;-77
2023/05/20 06:20:34;;;;;;;17.13;3.88;;;18.50;99.90;;;;;;5080218;28;20043;-76
2023/05/20 06:23:38;;;;;;;18.88;4.63;;;18.50;99.90;;;;;;5080563;28;20400;-77
2023/05/20 06:26:45;;;;;;;13.30;3.35;;;18.60;99.90;;;;;;5080201;28;20040;-77
2023/05/20 06:29:49;;;;;;;7.03;3.47;;;18.60;99.90;;;;;;5092872;28;20072;-76
2023/05/20 06:32:53;;;;;;;9.80;3.20;;;18.70;99.90;;;;;;5080173;28;20043;-71
2023/05/20 06:36:00;;;;;;;12.18;3.90;;;18.80;99.90;;;;;;5080164;28;20047;-68
2023/05/20 06:39:10;;;;;;;10.57;3.88;;;18.80;99.90;;;;;;5079900;28;20047;-70
2023/05/20 06:42:14;;;;;;;17.80;3.67;;;18.90;99.90;;;;;;5080364;28;20384;-70
2023/05/20 06:45:24;;;;;;;11.07;3.90;;;18.90;99.90;;;;;;5080169;28;20510;-70
2023/05/20 06:48:32;;;;;;;12.68;3.90;;;18.90;99.90;;;;;;5080070;28;20415;-72
2023/05/20 06:51:36;;;;;;;7.18;3.47;;;18.90;99.90;;;;;;5080057;28;20055;-70
2023/05/20 06:54:41;;;;;;;9.80;3.20;;;19.00;99.90;;;;;;5079509;28;20032;-72
2023/05/20 06:57:47;;;;;;;13.57;4.07;;;19.00;99.90;;;;;;5079619;28;20049;-75
2023/05/20 07:00:54;;;;;;;11.57;3.65;;;19.00;99.90;;;;;;5091468;28;20050;-73
2023/05/20 07:03:58;;;;;;;8.00;3.00;;;19.00;99.90;;;;;;5079724;28;20051;-72
2023/05/20 07:07:02;;;;;;;8.38;3.03;;;19.00;99.90;;;;;;5079059;28;20048;-74
2023/05/20 07:10:07;;;;;;;11.50;3.22;;;19.00;99.90;;;;;;5079328;28;20046;-72
2023/05/20 07:13:11;;;;;;;9.75;3.65;;;19.10;99.90;;;;;;5079274;28;20059;-73
2023/05/20 07:16:14;;;;;;;10.80;3.25;;;19.10;99.90;;;;;;5091666;28;20040;-71
2023/05/20 07:19:23;;;;;;;7.32;3.28;;;19.00;99.90;;;;;;5079203;28;20043;-71
2023/05/20 07:22:26;;;;;;;7.60;3.28;;;19.00;99.90;;;;;;5079289;28;20036;-74
2023/05/20 07:25:52;;;;;;;15.27;4.10;;;19.00;99.90;;;;;;5091541;28;20040;-74
2023/05/20 07:28:56;;;;;;;15.05;4.55;;;19.00;99.90;;;;;;5090833;28;20043;-72
2023/05/20 07:32:01;;;;;;;13.52;4.70;;;18.80;99.90;;;;;;5067933;28;20046;-73
2023/05/20 07:35:05;;;;;;;21.80;5.00;;;18.90;99.90;;;;;;5091716;28;20043;-71
2023/05/20 07:38:11;;;;;;;17.80;4.40;;;18.80;99.90;;;;;;5078602;28;20588;-73
2023/05/20 07:41:15;;;;;;;11.35;4.00;;;18.90;99.90;;;;;;5078750;28;20039;-73
2023/05/20 07:44:21;;;;;;;12.00;4.80;;;19.00;99.90;;;;;;5079202;28;20051;-70
2023/05/20 07:47:27;;;;;;;15.48;4.22;;;19.10;99.90;;;;;;5079008;28;20043;-71
2023/05/20 07:50:33;;;;;;;14.27;5.20;;;19.30;99.90;;;;;;5078921;28;20407;-70
2023/05/20 07:53:37;;;;;;;7.65;3.95;;;19.40;99.90;;;;;;5079523;28;20395;-70
2023/05/20 07:56:42;;;;;;;7.03;3.53;;;19.40;99.90;;;;;;5079059;28;20047;-74
2023/05/20 07:59:47;;;;;;;7.63;3.38;;;19.50;99.90;;;;;;5078793;28;20043;-70
2023/05/20 08:02:52;;;;;;;7.80;3.40;;;19.60;99.90;;;;;;5078871;28;20041;-74
2023/05/20 08:06:02;;;;;;;6.70;3.13;;;19.80;99.90;;;;;;5090418;28;20504;-75
2023/05/20 08:09:07;;;;;;;7.07;3.05;;;19.90;99.90;;;;;;5079302;28;20061;-78
2023/05/20 08:12:16;;;;;;;5.53;2.60;;;20.10;99.90;;;;;;5078852;28;20530;-77
2023/05/20 08:15:20;;;;;;;6.40;2.60;;;20.30;99.90;;;;;;5067359;28;20040;-78
2023/05/20 08:18:26;;;;;;;8.98;3.03;;;20.30;99.90;;;;;;5079326;28;20052;-72
2023/05/20 08:21:31;;;;;;;5.63;2.83;;;20.40;99.90;;;;;;5077448;28;20039;-71
2023/05/20 08:24:36;;;;;;;8.32;2.80;;;20.50;99.60;;;;;;5091158;28;20036;-70
2023/05/20 08:27:40;;;;;;;5.05;2.90;;;20.70;98.30;;;;;;5078541;28;20036;-73
2023/05/20 08:30:46;;;;;;;10.63;3.13;;;20.80;98.80;;;;;;5078589;28;20531;-77
2023/05/20 08:33:50;;;;;;;13.27;2.97;;;20.90;98.70;;;;;;5091477;28;20404;-80
2023/05/20 08:36:56;;;;;;;10.05;3.20;;;20.90;98.00;;;;;;5078394;28;20051;-78
2023/05/20 08:40:00;;;;;;;7.95;2.80;;;20.90;98.00;;;;;;5078309;28;20043;-75
2023/05/20 08:43:05;;;;;;;10.93;4.03;;;21.00;97.10;;;;;;5078878;28;20047;-77
2023/05/20 08:46:10;;;;;;;11.02;3.65;;;21.00;97.40;;;;;;5078235;28;20511;-79
2023/05/20 08:49:15;;;;;;;15.18;3.50;;;20.80;97.70;;;;;;5078853;28;20055;-81
2023/05/20 08:52:21;;;;;;;11.05;3.75;;;20.80;98.00;;;;;;5095021;28;20047;-74
2023/05/20 08:55:38;;;;;;;16.95;3.25;;;20.90;97.60;;;;;;5094505;28;20043;-74
2023/05/20 08:58:43;;;;;;;7.90;2.97;;;20.90;97.50;;;;;;5093710;28;20047;-73
2023/05/20 09:01:47;;;;;;;9.60;2.70;;;21.00;96.80;;;;;;5094400;28;20423;-71
2023/05/20 09:04:52;;;;;;;9.52;3.53;;;21.10;95.80;;;;;;5094331;28;20569;-73
2023/05/20 09:08:10;;;;;;;14.50;3.30;;;21.20;95.60;;;;;;5094160;28;20048;-75
2023/05/20 09:11:15;;;;;;;6.82;2.63;;;21.30;95.80;;;;;;5094160;28;20055;-72
2023/05/20 09:14:18;;;;;;;5.32;2.50;;;21.30;94.70;;;;;;5094210;28;20043;-75
2023/05/20 09:17:23;;;;;;;6.22;2.67;;;21.40;94.80;;;;;;5094272;28;20047;-74
2023/05/20 09:20:30;;;;;;;9.90;3.15;;;21.50;94.80;;;;;;5081615;28;20036;-74
2023/05/20 09:23:37;;;;;;;9.13;3.03;;;21.50;94.60;;;;;;5094067;28;20410;-76
2023/05/20 09:26:41;;;;;;;11.82;3.00;;;21.60;94.60;;;;;;5093871;28;20036;-72
2023/05/20 09:29:47;;;;;;;6.55;2.60;;;21.60;94.80;;;;;;5093829;28;20042;-72
2023/05/20 09:32:56;;;;;;;9.23;2.97;;;21.60;94.70;;;;;;5081129;28;20044;-72
2023/05/20 09:36:06;;;;;;;8.48;2.70;;;21.60;94.70;;;;;;5093650;28;20040;-74
2023/05/20 09:39:17;;;;;;;10.07;2.72;;;21.60;95.30;;;;;;5093950;28;20511;-70
2023/05/20 09:42:25;;;;;;;9.35;3.08;;;21.60;94.90;;;;;;5093502;28;20186;-73
2023/05/20 09:45:29;;;;;;;8.48;3.28;;;21.60;95.30;;;;;;5081052;28;20048;-73
2023/05/20 09:48:38;;;;;;;12.32;3.22;;;21.50;94.80;;;;;;5093404;28;20028;-74
2023/05/20 09:51:44;;;;;;;8.48;3.25;;;21.50;94.60;;;;;;5093892;28;20059;-72
2023/05/20 09:54:49;;;;;;;11.95;4.10;;;21.40;95.00;;;;;;5081087;28;20588;-72
2023/05/20 09:57:54;;;;;;;13.05;4.45;;;21.30;95.00;;;;;;5093513;28;20051;-73
2023/05/20 10:00:58;;;;;;;15.07;3.97;;;21.20;95.20;;;;;;5080453;28;20043;-72
2023/05/20 10:04:06;;;;;;;13.32;4.22;;;21.20;95.30;;;;;;5093317;28;20391;-73
2023/05/20 10:07:37;;;;;;;14.02;3.78;;;21.10;95.50;;;;;;5091202;28;20055;-72
2023/05/20 10:11:11;;;;;;;11.60;4.38;;;21.00;95.80;;;;;;5092984;28;20058;-73
2023/05/20 10:14:32;;;;;;;13.07;3.72;;;21.00;95.70;;;;;;5092469;28;20039;-72
2023/05/20 10:17:57;;;;;;;10.02;4.55;;;20.90;95.70;;;;;;5092782;28;20043;-73
2023/05/20 10:21:01;;;;;;;11.02;3.60;;;20.90;95.90;;;;;;5092852;28;20047;-72
2023/05/20 10:24:06;;;;;;;12.55;4.05;;;20.90;94.90;;;;;;5092875;28;20043;-71
2023/05/20 10:27:14;;;;;;;15.32;4.05;;;20.90;95.50;;;;;;5092556;28;20043;-70
2023/05/20 10:30:20;;;;;;;10.85;4.00;;;21.00;95.60;;;;;;5080338;28;20511;-74
2023/05/20 10:33:26;;;;;;;13.38;4.25;;;21.00;95.70;;;;;;5092658;28;20047;-72
2023/05/20 10:36:32;;;;;;;10.48;4.15;;;21.00;95.80;;;;;;5092388;28;20340;-71
2023/05/20 10:39:36;;;;;;;9.85;4.05;;;21.10;95.80;;;;;;5092308;28;20396;-71
2023/05/20 10:42:41;;;;;;;14.45;3.92;;;21.20;95.20;;;;;;5092509;28;20495;-70
2023/05/20 10:45:53;;;;;;;8.77;4.00;;;21.30;95.10;;;;;;5092190;28;20518;-70
2023/05/20 10:48:58;;;;;;;15.25;3.92;;;21.40;94.80;;;;;;5092357;28;20036;-70
2023/05/20 10:52:02;;;;;;;12.32;3.67;;;21.50;94.80;;;;;;5092173;28;20051;-71
2023/05/20 10:55:17;;;;;;;12.23;4.05;;;21.60;94.90;;;;;;5092548;28;20043;-73
2023/05/20 10:58:23;;;;;;;18.40;4.25;;;21.60;94.60;;;;;;5092221;28;20047;-71
2023/05/20 11:01:27;;;;;;;11.15;3.80;;;21.60;94.90;;;;;;5092110;28;20039;-73
2023/05/20 11:04:32;;;;;;;10.05;4.38;;;21.70;94.60;;;;;;5090829;28;20039;-72
2023/05/20 11:07:36;;;;;;;11.00;4.10;;;21.70;94.50;;;;;;5091792;28;20047;-70
2023/05/20 11:10:41;;;;;;;15.45;3.78;;;21.60;94.40;;;;;;5091965;28;20051;-71
2023/05/20 11:13:49;;;;;;;11.20;3.92;;;21.60;94.70;;;;;;5091288;28;20043;-72
2023/05/20 11:16:56;;;;;;;14.30;5.00;;;21.60;94.30;;;;;;5079422;28;20067;-73
2023/05/20 11:20:01;;;;;;;12.98;4.50;;;21.60;95.00;;;;;;5091817;28;20047;-72
2023/05/20 11:23:11;;;;;;;13.95;4.45;;;21.60;94.90;;;;;;5079418;28;20047;-71
2023/05/20 11:26:14;;;;;;;16.73;4.35;;;21.70;94.40;;;;;;5091777;28;20051;-74
2023/05/20 11:29:20;;;;;;;8.50;3.83;;;21.70;95.00;;;;;;5091764;28;20047;-72
2023/05/20 11:32:25;;;;;;;9.88;3.63;;;21.60;95.10;;;;;;5091649;28;20055;-72
2023/05/20 11:35:32;;;;;;;10.27;4.03;;;21.60;95.30;;;;;;5091509;28;20498;-72
2023/05/20 11:38:36;;;;;;;12.52;4.03;;;21.50;95.40;;;;;;5091651;28;20042;-71
2023/05/20 11:41:44;;;;;;;8.98;4.40;;;21.50;95.70;;;;;;5091380;28;20043;-71
2023/05/20 11:44:48;;;;;;;11.85;4.20;;;21.60;95.40;;;;;;5091678;28;20047;-72
2023/05/20 11:47:58;;;;;;;9.38;4.20;;;21.50;95.50;;;;;;5091106;28;20035;-71
2023/05/20 11:51:02;;;;;;;14.67;4.00;;;21.50;95.80;;;;;;5091234;28;20503;-71
2023/05/20 11:54:07;;;;;;;24.83;5.00;;;21.50;95.90;;;;;;5091144;28;20273;-71
2023/05/20 11:57:11;;;;;;;14.60;4.32;;;21.50;94.60;;;;;;5091135;28;20511;-70
2023/05/20 12:00:16;;;;;;;13.98;4.20;;;21.60;94.20;;;;;;5091047;28;20043;-70
2023/05/20 12:03:21;;;;;;;9.95;3.67;;;21.70;94.60;;;;;;5091051;28;20526;-73
2023/05/20 12:06:26;;;;;;;12.95;4.25;;;21.70;94.50;;;;;;5091101;28;20051;-71
2023/05/20 12:09:30;;;;;;;21.20;4.85;;;21.70;94.50;;;;;;5090955;28;20050;-74
2023/05/20 12:12:35;;;;;;;14.93;4.20;;;21.70;94.70;;;;;;5091024;28;20043;-71
2023/05/20 12:15:40;;;;;;;12.27;4.35;;;21.70;94.90;;;;;;5091075;28;20035;-72
2023/05/20 12:18:44;;;;;;;10.95;4.00;;;21.70;95.20;;;;;;5091111;28;20064;-72
2023/05/20 12:21:48;;;;;;;15.80;5.03;;;21.70;95.40;;;;;;5091441;28;20384;-74
2023/05/20 12:24:51;;;;;;;14.70;4.60;;;21.70;95.60;;;;;;5094136;28;20510;-69
2023/05/20 12:27:55;;;;;;;13.98;4.80;;;21.70;95.70;;;;;;5094995;28;20519;-73
2023/05/20 12:31:00;;;;;;;11.27;3.70;;;21.70;95.80;;;;;;5095159;28;20051;-72
2023/05/20 12:34:04;;;;;;;10.35;4.07;;;21.80;96.00;;;;;;5095267;28;20039;-70
2023/05/20 12:37:08;;;;;;;8.80;3.95;;;21.90;95.80;;;;;;5094711;28;20043;-71
2023/05/20 12:40:12;;;;;;;11.98;4.32;;;21.90;96.10;;;;;;5082654;28;20062;-70
2023/05/20 12:43:16;;;;;;;7.97;4.05;;;21.90;95.70;;;;;;5095102;28;20043;-70
2023/05/20 12:46:20;;;;;;;10.40;3.95;;;21.90;96.30;;;;;;5094531;28;20036;-72
2023/05/20 12:49:24;;;;;;;10.63;4.00;;;21.90;96.40;;;;;;5095085;28;20063;-71
2023/05/20 12:52:28;;;;;;;9.30;3.58;;;21.90;95.60;;;;;;5082398;28;20059;-70
2023/05/20 12:55:31;;;;;;;7.55;4.07;;;21.90;96.10;;;;;;5094474;28;20040;-71
2023/05/20 12:58:36;;;;;;;12.20;4.15;;;21.90;96.80;;;;;;5094783;28;20036;-72
2023/05/20 13:01:39;;;;;;;12.02;5.05;;;21.70;96.30;;;;;;5094519;28;20050;-69
2023/05/20 13:04:43;;;;;;;8.68;4.68;;;21.70;96.70;;;;;;5094230;28;20050;-74
2023/05/20 13:07:47;;;;;;;8.85;4.45;;;21.50;97.20;;;;;;5094143;28;20040;-72
2023/05/20 13:10:52;;;;;;;7.78;4.05;;;21.40;97.80;;;;;;5094403;28;20040;-72
2023/05/20 13:13:56;;;;;;;12.20;4.60;;;21.20;98.10;;;;;;5094119;28;20036;-71
2023/05/20 13:17:00;;;;;;;6.30;4.60;;;21.10;98.70;;;;;;5094354;28;20047;-72
2023/05/20 13:20:04;;;;;;;11.60;4.85;;;21.00;99.20;;;;;;5094396;28;20473;-70
2023/05/20 13:23:08;;;;;;;12.05;4.85;;;20.90;99.30;;;;;;5094040;28;20055;-69
2023/05/20 13:26:12;;;;;;;9.93;5.13;;;20.90;99.20;;;;;;5093924;28;20043;-73
2023/05/20 13:29:16;;;;;;;9.15;4.40;;;20.90;99.40;;;;;;5093871;28;20429;-71
2023/05/20 13:32:20;;;;;;;12.27;4.47;;;20.90;99.20;;;;;;5081383;28;20044;-70
2023/05/20 13:35:24;;;;;;;10.23;4.20;;;20.90;98.90;;;;;;5091252;28;20043;-76
2023/05/20 13:38:28;;;;;;;11.45;4.40;;;20.90;99.00;;;;;;5093589;28;20047;-74
2023/05/20 13:41:32;;;;;;;11.88;4.47;;;21.00;99.10;;;;;;5093326;28;20110;-74
2023/05/20 13:44:36;;;;;;;7.20;3.95;;;21.00;99.10;;;;;;5093802;28;20360;-75
2023/05/20 13:47:40;;;;;;;9.07;4.32;;;20.90;98.90;;;;;;5092685;28;20569;-76
2023/05/20 13:50:44;;;;;;;8.75;4.18;;;20.90;98.80;;;;;;5093488;28;20518;-75
2023/05/20 13:53:48;;;;;;;8.43;4.85;;;20.90;98.90;;;;;;5093501;28;20040;-75
2023/05/20 13:56:52;;;;;;;11.95;4.60;;;20.90;98.90;;;;;;5093344;28;20051;-75
2023/05/20 13:59:56;;;;;;;8.63;4.35;;;20.90;99.00;;;;;;5093346;28;20557;-75
2023/05/20 14:03:00;;;;;;;6.43;4.30;;;20.90;98.60;;;;;;5093282;28;20045;-74
2023/05/20 14:06:05;;;;;;;10.15;4.97;;;20.90;98.30;;;;;;5080565;28;20032;-75
2023/05/20 14:09:08;;;;;;;5.38;3.97;;;20.80;98.20;;;;;;5093196;28;20664;-73
2023/05/20 14:12:12;;;;;;;8.70;4.25;;;20.80;98.00;;;;;;5093161;28;20048;-76
2023/05/20 14:15:16;;;;;;;9.82;4.47;;;20.80;98.10;;;;;;5093240;28;20046;-76
2023/05/20 14:18:20;;;;;;;4.93;3.95;;;20.80;97.60;;;;;;5092878;28;20040;-76
2023/05/20 14:21:24;;;;;;;6.38;4.13;;;20.80;97.80;;;;;;5092880;28;20036;-74
2023/05/20 14:24:28;;;;;;;8.07;5.05;;;20.70;98.00;;;;;;5092824;28;20089;-76
2023/05/20 14:27:33;;;;;;;6.15;4.05;;;20.70;98.90;;;;;;5092973;28;20050;-74
2023/05/20 14:30:37;;;;;;;8.85;4.97;;;20.70;99.20;;;;;;5092813;28;20055;-75
2023/05/20 14:33:40;;;;;;;8.68;5.68;;;20.60;99.60;;;;;;5092552;28;20181;-75
2023/05/20 14:36:44;;;;;;;9.73;6.00;;;20.50;99.90;;;;;;5092309;28;20063;-72
2023/05/20 14:39:48;;;;;;;13.52;5.38;;;20.50;99.90;;;;;;5092871;28;20678;-75
2023/05/20 14:42:52;;;;;;;11.18;5.18;;;20.40;99.90;;;;;;5090173;28;20478;-74
2023/05/20 14:45:56;;;;;;;6.65;5.38;;;20.30;99.90;;;;;;5078552;28;20063;-73
2023/05/20 14:49:00;;;;;;;8.90;5.25;;;20.20;99.90;;;;;;5078584;28;20426;-75
2023/05/20 14:52:06;;;;;;;9.95;5.57;;;20.20;99.90;;;;;;5091855;28;20549;-76
2023/05/20 14:55:10;;;;;;;10.32;5.70;;;20.20;99.90;;;;;;5079511;28;20051;-76
2023/05/20 14:58:14;;;;;;;8.32;5.32;;;20.20;99.90;;;;;;5079157;28;20047;-76
2023/05/20 15:01:18;;;;;;;10.88;5.68;;;20.10;99.90;;;;;;5091727;28;20040;-76
2023/05/20 15:04:22;;;;;;;11.75;5.88;;;20.00;99.90;;;;;;5092189;28;20503;-74
2023/05/20 15:07:26;;;;;;;10.85;6.20;;;20.00;99.90;;;;;;5092124;28;20046;-76
2023/05/20 15:10:30;;;;;;;8.68;5.53;;;20.00;99.90;;;;;;5079888;28;20043;-74
2023/05/20 15:13:35;;;;;;;12.05;5.90;;;20.00;99.90;;;;;;5092293;28;20047;-75
2023/05/20 15:16:39;;;;;;;9.77;6.30;;;20.10;99.90;;;;;;5092152;28;20043;-75
2023/05/20 15:19:43;;;;;;;7.10;5.40;;;20.00;99.90;;;;;;5091978;28;20040;-74
2023/05/20 15:22:47;;;;;;;11.10;6.20;;;20.00;99.90;;;;;;5091650;28;20042;-75
2023/05/20 15:25:51;;;;;;;7.32;5.30;;;19.90;99.90;;;;;;5091763;28;20043;-74
2023/05/20 15:28:55;;;;;;;10.05;5.53;;;19.80;99.90;;;;;;5091817;28;20040;-75
2023/05/20 15:31:59;;;;;;;8.10;5.40;;;19.80;99.90;;;;;;5091581;28;20047;-73
2023/05/20 15:35:03;;;;;;;12.77;6.40;;;19.80;99.90;;;;;;5091583;28;20032;-73
2023/05/20 15:38:07;;;;;;;10.77;6.45;;;19.80;99.90;;;;;;5091620;28;20050;-75
2023/05/20 15:41:12;;;;;;;14.85;6.82;;;19.80;99.90;;;;;;5091632;28;20511;-76
2023/05/20 15:44:16;;;;;;;14.00;7.40;;;19.70;99.90;;;;;;5091419;28;20400;-74
2023/05/20 15:47:20;;;;;;;12.18;6.95;;;19.60;99.90;;;;;;5091280;28;20047;-74
2023/05/20 15:50:24;;;;;;;10.00;6.30;;;19.60;99.90;;;;;;5091233;28;20514;-76
2023/05/20 15:53:29;;;;;;;11.77;6.72;;;19.60;99.90;;;;;;5091108;28;20051;-77
2023/05/20 15:56:33;;;;;;;12.88;6.72;;;19.50;99.90;;;;;;5078186;28;20063;-74